»·PEaware :: N513KQ KGCC-KLBF

N513KQ :: KGCC-KLBF

FLIGHT INFORMATION

Flight Status: Arrived
Operator: Privately registered:
United States
More flights under this callsign
Pilot: Stefan D. (14429)
Aircraft: SOCATA TBM-900
(TBM9)
More flights by this aircraft type
Origin: KGCC Gillette-Campbell Co
United States
Destination: KLBF North Platte Regl-Bird
United States
More flights between these airports :: More routes between these airports
Route: DCT WAXER DCT
File this flight plan on PilotEdge
Remarks:
Altitude:
(Current/Filed)
23,000ft
Speed:
(Current/Filed)
300kts
Departed: 07-Mar-19 03:46 AM
Arrived: 07-Mar-19 04:58 AM
Distance/Time
Traveled:
288nm/1:11
Distance/Time
To Go:
Arrived

Flight Plot

Page will automatically refresh every two minutes.

Flight plan parsing failed; only flown route is shown


Map Options




Map Legend


Flown Route
Filed Route
Departure Airport
Arrival Airport
Navaid (VOR, NDB)
Fix

Horizontal Profiles

Position Reports

Time Latitude Longitude Heading Altitude Ground
Speed
07-Mar-19 03:39 44.347684 -105.533599 275 4368ft 0kts
07-Mar-19 03:40 44.347684 -105.533599 275 4368ft 0kts
07-Mar-19 03:41 44.347684 -105.533599 275 4368ft 0kts
07-Mar-19 03:42 44.347292 -105.534487 209 4368ft 2kts
07-Mar-19 03:43 44.347705 -105.537298 334 4368ft 14kts
07-Mar-19 03:44 44.350915 -105.541088 306 4368ft 16kts
07-Mar-19 03:45 44.336819 -105.538376 167 4646ft 116kts
07-Mar-19 03:46 44.313316 -105.501107 119 6404ft 148kts
07-Mar-19 03:47 44.294981 -105.449058 119 8486ft 152kts
07-Mar-19 03:48 44.269274 -105.401329 130 10307ft 158kts
07-Mar-19 03:49 44.241177 -105.352739 129 11993ft 164kts
07-Mar-19 03:50 44.212028 -105.302391 131 13936ft 169kts
07-Mar-19 03:51 44.182041 -105.250756 132 15737ft 174kts
07-Mar-19 03:52 44.150860 -105.197161 133 17347ft 180kts
07-Mar-19 03:53 44.117589 -105.140083 134 19163ft 188kts
07-Mar-19 03:54 44.083096 -105.080993 135 20847ft 194kts
07-Mar-19 03:55 44.047434 -105.020056 136 22351ft 199kts
07-Mar-19 03:56 44.009256 -104.955118 136 22984ft 237kts
07-Mar-19 03:57 43.964378 -104.878748 135 22989ft 267kts
07-Mar-19 03:58 43.915317 -104.795499 135 22982ft 278kts
07-Mar-19 03:59 43.865549 -104.711312 135 22986ft 283kts
07-Mar-19 04:00 43.815042 -104.626130 135 22985ft 285kts
07-Mar-19 04:01 43.762833 -104.538352 135 22985ft 285kts
07-Mar-19 04:02 43.709978 -104.449749 135 22984ft 286kts
07-Mar-19 04:03 43.656637 -104.360612 135 22985ft 286kts
07-Mar-19 04:04 43.604199 -104.273245 136 22980ft 285kts
07-Mar-19 04:05 43.552251 -104.186974 136 22980ft 285kts
07-Mar-19 04:06 43.499678 -104.099906 136 22967ft 285kts
07-Mar-19 04:07 43.447288 -104.013416 136 22939ft 285kts
07-Mar-19 04:08 43.394930 -103.927226 136 22913ft 285kts
07-Mar-19 04:09 43.342386 -103.840980 136 22907ft 285kts
07-Mar-19 04:10 43.289991 -103.755238 136 22908ft 284kts
07-Mar-19 04:11 43.237810 -103.670102 136 22909ft 284kts
07-Mar-19 04:12 43.185887 -103.585616 136 22958ft 283kts
07-Mar-19 04:13 43.133751 -103.501048 136 23019ft 282kts
07-Mar-19 04:14 43.081391 -103.416350 136 23045ft 283kts
07-Mar-19 04:16 43.028986 -103.331782 137 23040ft 284kts
07-Mar-19 04:17 42.976070 -103.246600 139 23038ft 288kts
07-Mar-19 04:18 42.919702 -103.163280 144 23040ft 296kts
07-Mar-19 04:19 42.860423 -103.077915 144 23054ft 309kts
07-Mar-19 04:20 42.799438 -102.990249 144 23049ft 314kts
07-Mar-19 04:21 42.737911 -102.902028 144 23050ft 312kts
07-Mar-19 04:22 42.676075 -102.813685 144 23056ft 312kts
07-Mar-19 04:23 42.614645 -102.726182 144 23056ft 312kts
07-Mar-19 04:24 42.552878 -102.638474 144 23045ft 312kts
07-Mar-19 04:25 42.490625 -102.550349 144 23012ft 313kts
07-Mar-19 04:26 42.428228 -102.462279 144 22985ft 313kts
07-Mar-19 04:27 42.366197 -102.374997 144 22994ft 312kts
07-Mar-19 04:28 42.304779 -102.288837 144 23005ft 310kts
07-Mar-19 04:29 42.243315 -102.203082 143 22997ft 313kts
07-Mar-19 04:30 42.178819 -102.112986 142 23045ft 327kts
07-Mar-19 04:31 42.112427 -102.020686 142 23048ft 332kts
07-Mar-19 04:32 42.045975 -101.928624 142 23047ft 335kts
07-Mar-19 04:33 41.979279 -101.836531 142 22891ft 341kts
07-Mar-19 04:33 41.920716 -101.755934 141 21934ft 361kts
07-Mar-19 04:35 41.836737 -101.639977 134 20555ft 371kts
07-Mar-19 04:36 41.778186 -101.524523 128 19355ft 353kts
07-Mar-19 04:36 41.732300 -101.433050 128 18312ft 335kts
07-Mar-19 04:38 41.671189 -101.311620 128 16885ft 323kts
07-Mar-19 04:39 41.620284 -101.210845 128 15641ft 318kts
07-Mar-19 04:39 41.578635 -101.128623 127 14619ft 314kts
07-Mar-19 04:40 41.529298 -101.031519 127 13402ft 310kts
07-Mar-19 04:42 41.472682 -100.920465 127 11989ft 298kts
07-Mar-19 04:42 41.434255 -100.845315 127 10990ft 287kts
07-Mar-19 04:43 41.390790 -100.760539 127 9802ft 275kts
07-Mar-19 04:44 41.349271 -100.679790 126 8629ft 267kts
07-Mar-19 04:45 41.310641 -100.604849 126 7514ft 262kts
07-Mar-19 04:46 41.275565 -100.536959 125 6484ft 259kts
07-Mar-19 04:47 41.243159 -100.474504 127 5499ft 250kts
07-Mar-19 04:48 41.181334 -100.414741 150 4742ft 223kts
07-Mar-19 04:49 41.120986 -100.383613 163 4684ft 211kts
07-Mar-19 04:50 41.067844 -100.372186 173 4686ft 207kts
07-Mar-19 04:51 41.021493 -100.373174 183 4694ft 218kts
07-Mar-19 04:52 41.002323 -100.449136 285 4686ft 218kts
07-Mar-19 04:53 41.036825 -100.515870 308 4592ft 215kts
07-Mar-19 04:54 41.070781 -100.577987 304 4422ft 181kts
07-Mar-19 04:55 41.097403 -100.626617 306 3550ft 143kts
07-Mar-19 04:56 41.120514 -100.668823 308 2806ft 114kts
07-Mar-19 04:57 41.127704 -100.684487 215 2780ft 10kts
07-Mar-19 04:58 41.129287 -100.688477 306 2780ft 22kts
07-Mar-19 04:59 41.131098 -100.695018 271 2780ft 9kts
07-Mar-19 05:00 41.131958 -100.695983 269 2780ft 0kts
07-Mar-19 05:01 41.131958 -100.695983 269 2780ft 0kts

Navigation Log

Ident Type
Flight plan parsing failed, navigation log unavailable